sensor_id;sensor_type;location;lat;lon;timestamp;P1;durP1;ratioP1;P2;durP2;ratioP2
82511;SDS011;72152;65.012;25.464;2024-02-28T00:02:12;1.90;;;1.10;;
82511;SDS011;72152;65.012;25.464;2024-02-28T00:05:19;1.10;;;0.70;;
82511;SDS011;72152;65.012;25.464;2024-02-28T00:08:25;1.70;;;1.10;;
82511;SDS011;72152;65.012;25.464;2024-02-28T00:11:32;1.80;;;1.00;;
82511;SDS011;72152;65.012;25.464;2024-02-28T00:17:51;2.10;;;1.30;;
82511;SDS011;72152;65.012;25.464;2024-02-28T00:20:58;2.50;;;1.20;;
82511;SDS011;72152;65.012;25.464;2024-02-28T00:24:06;3.30;;;1.30;;
82511;SDS011;72152;65.012;25.464;2024-02-28T00:27:16;1.40;;;1.00;;
82511;SDS011;72152;65.012;25.464;2024-02-28T00:30:21;2.30;;;1.30;;
82511;SDS011;72152;65.012;25.464;2024-02-28T00:33:32;2.70;;;1.30;;
82511;SDS011;72152;65.012;25.464;2024-02-28T00:36:35;2.20;;;1.20;;
82511;SDS011;72152;65.012;25.464;2024-02-28T00:39:40;2.40;;;1.20;;
82511;SDS011;72152;65.012;25.464;2024-02-28T00:42:56;2.70;;;1.40;;
82511;SDS011;72152;65.012;25.464;2024-02-28T00:49:20;2.50;;;1.20;;
82511;SDS011;72152;65.012;25.464;2024-02-28T00:52:28;2.40;;;1.30;;
82511;SDS011;72152;65.012;25.464;2024-02-28T00:55:34;1.70;;;1.20;;
82511;SDS011;72152;65.012;25.464;2024-02-28T00:58:38;2.40;;;1.40;;
82511;SDS011;72152;65.012;25.464;2024-02-28T01:01:45;2.40;;;1.20;;
82511;SDS011;72152;65.012;25.464;2024-02-28T01:04:53;3.20;;;1.40;;
82511;SDS011;72152;65.012;25.464;2024-02-28T01:08:00;2.60;;;1.30;;
82511;SDS011;72152;65.012;25.464;2024-02-28T01:11:10;1.80;;;1.10;;
82511;SDS011;72152;65.012;25.464;2024-02-28T01:14:16;1.30;;;1.00;;
82511;SDS011;72152;65.012;25.464;2024-02-28T01:17:21;3.10;;;1.20;;
82511;SDS011;72152;65.012;25.464;2024-02-28T01:23:29;3.20;;;1.30;;
82511;SDS011;72152;65.012;25.464;2024-02-28T01:26:37;1.50;;;1.10;;
82511;SDS011;72152;65.012;25.464;2024-02-28T01:29:46;1.90;;;1.20;;
82511;SDS011;72152;65.012;25.464;2024-02-28T01:32:56;2.40;;;1.20;;
82511;SDS011;72152;65.012;25.464;2024-02-28T01:36:06;3.10;;;1.40;;
82511;SDS011;72152;65.012;25.464;2024-02-28T01:39:20;2.60;;;1.20;;
82511;SDS011;72152;65.012;25.464;2024-02-28T01:42:23;3.70;;;1.40;;
82511;SDS011;72152;65.012;25.464;2024-02-28T01:45:30;1.70;;;1.00;;
82511;SDS011;72152;65.012;25.464;2024-02-28T01:48:35;1.90;;;1.10;;
82511;SDS011;72152;65.012;25.464;2024-02-28T01:51:42;3.20;;;1.20;;
82511;SDS011;72152;65.012;25.464;2024-02-28T01:54:42;1.80;;;1.20;;
82511;SDS011;72152;65.012;25.464;2024-02-28T01:57:52;2.60;;;1.20;;
82511;SDS011;72152;65.012;25.464;2024-02-28T02:00:59;2.30;;;1.30;;
82511;SDS011;72152;65.012;25.464;2024-02-28T02:04:10;2.60;;;1.30;;
82511;SDS011;72152;65.012;25.464;2024-02-28T02:07:18;1.80;;;1.10;;
82511;SDS011;72152;65.012;25.464;2024-02-28T02:10:26;2.20;;;1.20;;
82511;SDS011;72152;65.012;25.464;2024-02-28T02:13:27;2.70;;;1.40;;
82511;SDS011;72152;65.012;25.464;2024-02-28T02:16:31;3.20;;;1.40;;
82511;SDS011;72152;65.012;25.464;2024-02-28T02:23:04;2.30;;;1.40;;
82511;SDS011;72152;65.012;25.464;2024-02-28T02:26:12;3.50;;;1.40;;
82511;SDS011;72152;65.012;25.464;2024-02-28T02:29:17;3.50;;;1.60;;
82511;SDS011;72152;65.012;25.464;2024-02-28T02:32:23;2.70;;;1.40;;
82511;SDS011;72152;65.012;25.464;2024-02-28T02:35:30;2.80;;;1.30;;
82511;SDS011;72152;65.012;25.464;2024-02-28T02:38:34;3.50;;;1.60;;
82511;SDS011;72152;65.012;25.464;2024-02-28T02:41:45;2.80;;;1.50;;
82511;SDS011;72152;65.012;25.464;2024-02-28T02:44:50;2.60;;;1.30;;
82511;SDS011;72152;65.012;25.464;2024-02-28T02:47:58;3.10;;;1.40;;
82511;SDS011;72152;65.012;25.464;2024-02-28T02:51:01;4.10;;;1.60;;
82511;SDS011;72152;65.012;25.464;2024-02-28T02:54:10;2.50;;;1.40;;
82511;SDS011;72152;65.012;25.464;2024-02-28T02:57:16;3.50;;;1.50;;
82511;SDS011;72152;65.012;25.464;2024-02-28T03:00:28;2.90;;;1.40;;
82511;SDS011;72152;65.012;25.464;2024-02-28T03:03:39;3.90;;;1.50;;
82511;SDS011;72152;65.012;25.464;2024-02-28T03:06:44;3.50;;;1.70;;
82511;SDS011;72152;65.012;25.464;2024-02-28T03:09:53;2.30;;;1.30;;
82511;SDS011;72152;65.012;25.464;2024-02-28T03:13:01;2.70;;;1.40;;
82511;SDS011;72152;65.012;25.464;2024-02-28T03:16:18;3.90;;;1.60;;
82511;SDS011;72152;65.012;25.464;2024-02-28T03:19:23;3.20;;;1.30;;
82511;SDS011;72152;65.012;25.464;2024-02-28T03:22:34;3.20;;;1.30;;
82511;SDS011;72152;65.012;25.464;2024-02-28T03:25:41;3.10;;;1.50;;
82511;SDS011;72152;65.012;25.464;2024-02-28T03:28:49;2.00;;;1.20;;
82511;SDS011;72152;65.012;25.464;2024-02-28T03:31:53;2.00;;;1.00;;
82511;SDS011;72152;65.012;25.464;2024-02-28T03:34:54;3.10;;;1.40;;
82511;SDS011;72152;65.012;25.464;2024-02-28T03:38:01;2.50;;;1.40;;
82511;SDS011;72152;65.012;25.464;2024-02-28T03:41:12;2.50;;;1.40;;
82511;SDS011;72152;65.012;25.464;2024-02-28T03:44:12;2.90;;;1.50;;
82511;SDS011;72152;65.012;25.464;2024-02-28T03:47:21;3.50;;;1.60;;
82511;SDS011;72152;65.012;25.464;2024-02-28T03:53:35;3.00;;;1.40;;
82511;SDS011;72152;65.012;25.464;2024-02-28T03:56:43;3.30;;;1.80;;
82511;SDS011;72152;65.012;25.464;2024-02-28T03:59:49;2.40;;;1.30;;
82511;SDS011;72152;65.012;25.464;2024-02-28T04:02:59;3.10;;;1.40;;
82511;SDS011;72152;65.012;25.464;2024-02-28T04:06:07;2.40;;;1.50;;
82511;SDS011;72152;65.012;25.464;2024-02-28T04:09:14;3.10;;;1.40;;
82511;SDS011;72152;65.012;25.464;2024-02-28T04:12:22;2.50;;;1.40;;
82511;SDS011;72152;65.012;25.464;2024-02-28T04:15:34;3.10;;;1.50;;
82511;SDS011;72152;65.012;25.464;2024-02-28T04:18:45;3.80;;;1.40;;
82511;SDS011;72152;65.012;25.464;2024-02-28T04:21:53;3.80;;;1.30;;
82511;SDS011;72152;65.012;25.464;2024-02-28T04:25:02;3.20;;;1.40;;
82511;SDS011;72152;65.012;25.464;2024-02-28T04:28:10;2.70;;;1.40;;
82511;SDS011;72152;65.012;25.464;2024-02-28T04:31:16;2.30;;;1.30;;
82511;SDS011;72152;65.012;25.464;2024-02-28T04:34:20;4.30;;;1.60;;
82511;SDS011;72152;65.012;25.464;2024-02-28T04:40:32;2.70;;;1.40;;
82511;SDS011;72152;65.012;25.464;2024-02-28T04:43:40;2.50;;;1.50;;
82511;SDS011;72152;65.012;25.464;2024-02-28T04:46:48;3.80;;;1.50;;
82511;SDS011;72152;65.012;25.464;2024-02-28T04:49:55;2.90;;;1.70;;
82511;SDS011;72152;65.012;25.464;2024-02-28T04:53:03;4.30;;;1.80;;
82511;SDS011;72152;65.012;25.464;2024-02-28T04:56:16;4.10;;;1.90;;
82511;SDS011;72152;65.012;25.464;2024-02-28T04:59:22;3.80;;;1.90;;
82511;SDS011;72152;65.012;25.464;2024-02-28T05:02:29;3.90;;;1.70;;
82511;SDS011;72152;65.012;25.464;2024-02-28T05:05:36;3.00;;;1.60;;
82511;SDS011;72152;65.012;25.464;2024-02-28T05:08:49;3.40;;;1.80;;
82511;SDS011;72152;65.012;25.464;2024-02-28T05:12:00;2.80;;;1.50;;
82511;SDS011;72152;65.012;25.464;2024-02-28T05:15:05;3.60;;;1.40;;
82511;SDS011;72152;65.012;25.464;2024-02-28T05:18:13;4.10;;;1.70;;
82511;SDS011;72152;65.012;25.464;2024-02-28T05:21:24;4.10;;;2.00;;
82511;SDS011;72152;65.012;25.464;2024-02-28T05:24:40;2.80;;;1.50;;
82511;SDS011;72152;65.012;25.464;2024-02-28T05:27:46;4.20;;;2.10;;
82511;SDS011;72152;65.012;25.464;2024-02-28T05:30:54;4.30;;;2.30;;
82511;SDS011;72152;65.012;25.464;2024-02-28T05:34:21;4.60;;;1.70;;
82511;SDS011;72152;65.012;25.464;2024-02-28T05:37:31;4.30;;;1.70;;
82511;SDS011;72152;65.012;25.464;2024-02-28T05:40:35;3.30;;;1.50;;
82511;SDS011;72152;65.012;25.464;2024-02-28T05:43:38;2.80;;;1.50;;
82511;SDS011;72152;65.012;25.464;2024-02-28T05:46:40;3.70;;;1.90;;
82511;SDS011;72152;65.012;25.464;2024-02-28T05:52:40;3.70;;;1.80;;
82511;SDS011;72152;65.012;25.464;2024-02-28T05:55:52;3.40;;;1.80;;
82511;SDS011;72152;65.012;25.464;2024-02-28T05:59:06;4.30;;;1.80;;
82511;SDS011;72152;65.012;25.464;2024-02-28T06:02:13;5.10;;;2.00;;
82511;SDS011;72152;65.012;25.464;2024-02-28T06:05:24;4.40;;;2.10;;
82511;SDS011;72152;65.012;25.464;2024-02-28T06:08:30;3.70;;;1.80;;
82511;SDS011;72152;65.012;25.464;2024-02-28T06:11:37;2.90;;;1.70;;
82511;SDS011;72152;65.012;25.464;2024-02-28T06:14:41;3.90;;;1.80;;
82511;SDS011;72152;65.012;25.464;2024-02-28T06:17:46;2.70;;;1.50;;
82511;SDS011;72152;65.012;25.464;2024-02-28T06:20:46;3.40;;;1.50;;
82511;SDS011;72152;65.012;25.464;2024-02-28T06:23:55;3.00;;;1.70;;
82511;SDS011;72152;65.012;25.464;2024-02-28T06:27:02;3.00;;;1.70;;
82511;SDS011;72152;65.012;25.464;2024-02-28T06:33:25;3.10;;;1.60;;
82511;SDS011;72152;65.012;25.464;2024-02-28T06:36:37;7.60;;;3.30;;
82511;SDS011;72152;65.012;25.464;2024-02-28T06:39:51;3.90;;;1.70;;
82511;SDS011;72152;65.012;25.464;2024-02-28T06:43:03;3.20;;;1.70;;
82511;SDS011;72152;65.012;25.464;2024-02-28T06:46:14;3.60;;;1.70;;
82511;SDS011;72152;65.012;25.464;2024-02-28T06:49:22;4.00;;;1.80;;
82511;SDS011;72152;65.012;25.464;2024-02-28T06:52:33;3.70;;;1.80;;
82511;SDS011;72152;65.012;25.464;2024-02-28T06:55:40;3.20;;;1.60;;
82511;SDS011;72152;65.012;25.464;2024-02-28T06:58:43;3.00;;;1.60;;
82511;SDS011;72152;65.012;25.464;2024-02-28T07:01:51;4.40;;;1.60;;
82511;SDS011;72152;65.012;25.464;2024-02-28T07:05:04;3.40;;;1.60;;
82511;SDS011;72152;65.012;25.464;2024-02-28T07:08:16;3.70;;;1.40;;
82511;SDS011;72152;65.012;25.464;2024-02-28T07:11:25;3.20;;;1.70;;
82511;SDS011;72152;65.012;25.464;2024-02-28T07:14:31;3.70;;;1.70;;
82511;SDS011;72152;65.012;25.464;2024-02-28T07:17:43;3.50;;;1.80;;
82511;SDS011;72152;65.012;25.464;2024-02-28T07:20:49;3.60;;;1.70;;
82511;SDS011;72152;65.012;25.464;2024-02-28T07:23:59;3.80;;;1.60;;
82511;SDS011;72152;65.012;25.464;2024-02-28T07:27:04;3.60;;;1.50;;
82511;SDS011;72152;65.012;25.464;2024-02-28T07:30:05;3.20;;;1.50;;
82511;SDS011;72152;65.012;25.464;2024-02-28T07:33:20;2.60;;;1.50;;
82511;SDS011;72152;65.012;25.464;2024-02-28T07:36:26;2.50;;;1.50;;
82511;SDS011;72152;65.012;25.464;2024-02-28T07:39:32;3.20;;;1.60;;
82511;SDS011;72152;65.012;25.464;2024-02-28T07:42:44;2.90;;;1.20;;
82511;SDS011;72152;65.012;25.464;2024-02-28T07:45:48;2.20;;;1.30;;
82511;SDS011;72152;65.012;25.464;2024-02-28T07:48:59;2.60;;;1.50;;
82511;SDS011;72152;65.012;25.464;2024-02-28T07:52:13;2.50;;;1.30;;
82511;SDS011;72152;65.012;25.464;2024-02-28T07:55:13;1.20;;;1.00;;
82511;SDS011;72152;65.012;25.464;2024-02-28T07:58:25;1.70;;;0.90;;
82511;SDS011;72152;65.012;25.464;2024-02-28T08:01:28;4.20;;;1.80;;
82511;SDS011;72152;65.012;25.464;2024-02-28T08:04:33;1.10;;;0.80;;
82511;SDS011;72152;65.012;25.464;2024-02-28T08:07:40;2.00;;;0.90;;
82511;SDS011;72152;65.012;25.464;2024-02-28T08:10:48;2.40;;;1.20;;
82511;SDS011;72152;65.012;25.464;2024-02-28T08:13:52;2.40;;;1.20;;
82511;SDS011;72152;65.012;25.464;2024-02-28T08:16:56;1.70;;;1.10;;
82511;SDS011;72152;65.012;25.464;2024-02-28T08:20:03;2.70;;;1.20;;
82511;SDS011;72152;65.012;25.464;2024-02-28T08:23:10;1.80;;;1.20;;
82511;SDS011;72152;65.012;25.464;2024-02-28T08:26:16;2.00;;;1.10;;
82511;SDS011;72152;65.012;25.464;2024-02-28T08:29:21;1.70;;;0.90;;
82511;SDS011;72152;65.012;25.464;2024-02-28T08:32:29;1.80;;;1.10;;
82511;SDS011;72152;65.012;25.464;2024-02-28T08:35:32;1.50;;;0.70;;
82511;SDS011;72152;65.012;25.464;2024-02-28T08:38:33;0.90;;;0.70;;
82511;SDS011;72152;65.012;25.464;2024-02-28T08:41:46;2.10;;;0.90;;
82511;SDS011;72152;65.012;25.464;2024-02-28T08:44:47;3.10;;;1.20;;
82511;SDS011;72152;65.012;25.464;2024-02-28T08:50:56;2.20;;;0.90;;
82511;SDS011;72152;65.012;25.464;2024-02-28T08:54:07;2.80;;;1.40;;
82511;SDS011;72152;65.012;25.464;2024-02-28T08:57:22;2.10;;;1.10;;
82511;SDS011;72152;65.012;25.464;2024-02-28T09:00:29;1.40;;;1.00;;
82511;SDS011;72152;65.012;25.464;2024-02-28T09:03:38;1.70;;;1.00;;
82511;SDS011;72152;65.012;25.464;2024-02-28T09:06:49;1.60;;;1.00;;
82511;SDS011;72152;65.012;25.464;2024-02-28T09:09:54;1.70;;;0.90;;
82511;SDS011;72152;65.012;25.464;2024-02-28T09:13:01;2.50;;;1.10;;
82511;SDS011;72152;65.012;25.464;2024-02-28T09:16:12;1.70;;;1.00;;
82511;SDS011;72152;65.012;25.464;2024-02-28T09:19:18;2.00;;;1.10;;
82511;SDS011;72152;65.012;25.464;2024-02-28T09:22:39;2.10;;;1.10;;
82511;SDS011;72152;65.012;25.464;2024-02-28T09:28:37;1.40;;;0.80;;
82511;SDS011;72152;65.012;25.464;2024-02-28T09:31:39;1.10;;;0.60;;
82511;SDS011;72152;65.012;25.464;2024-02-28T09:34:46;1.50;;;0.80;;
82511;SDS011;72152;65.012;25.464;2024-02-28T09:37:50;1.40;;;0.80;;
82511;SDS011;72152;65.012;25.464;2024-02-28T09:40:52;1.50;;;0.70;;
82511;SDS011;72152;65.012;25.464;2024-02-28T09:43:53;1.50;;;0.80;;
82511;SDS011;72152;65.012;25.464;2024-02-28T09:47:03;1.40;;;0.70;;
82511;SDS011;72152;65.012;25.464;2024-02-28T09:50:14;2.30;;;1.00;;
82511;SDS011;72152;65.012;25.464;2024-02-28T09:53:32;1.60;;;0.90;;
82511;SDS011;72152;65.012;25.464;2024-02-28T09:56:35;1.00;;;0.60;;
82511;SDS011;72152;65.012;25.464;2024-02-28T09:59:35;1.50;;;0.80;;
82511;SDS011;72152;65.012;25.464;2024-02-28T10:02:43;1.10;;;0.70;;
82511;SDS011;72152;65.012;25.464;2024-02-28T10:05:54;0.70;;;0.70;;
82511;SDS011;72152;65.012;25.464;2024-02-28T10:09:03;1.00;;;0.70;;
82511;SDS011;72152;65.012;25.464;2024-02-28T10:12:06;1.20;;;0.90;;
82511;SDS011;72152;65.012;25.464;2024-02-28T10:15:10;1.00;;;0.80;;
82511;SDS011;72152;65.012;25.464;2024-02-28T10:18:19;0.90;;;0.60;;
82511;SDS011;72152;65.012;25.464;2024-02-28T10:21:24;1.50;;;0.90;;
82511;SDS011;72152;65.012;25.464;2024-02-28T10:24:30;1.90;;;0.90;;
82511;SDS011;72152;65.012;25.464;2024-02-28T10:27:38;2.10;;;0.90;;
82511;SDS011;72152;65.012;25.464;2024-02-28T10:33:59;1.20;;;0.70;;
82511;SDS011;72152;65.012;25.464;2024-02-28T10:37:01;1.10;;;0.90;;
82511;SDS011;72152;65.012;25.464;2024-02-28T10:40:02;1.80;;;1.10;;
82511;SDS011;72152;65.012;25.464;2024-02-28T10:43:11;1.20;;;0.70;;
82511;SDS011;72152;65.012;25.464;2024-02-28T10:46:17;1.40;;;0.70;;
82511;SDS011;72152;65.012;25.464;2024-02-28T10:49:26;2.20;;;1.10;;
82511;SDS011;72152;65.012;25.464;2024-02-28T10:52:39;1.10;;;0.50;;
82511;SDS011;72152;65.012;25.464;2024-02-28T10:55:47;1.20;;;0.70;;
82511;SDS011;72152;65.012;25.464;2024-02-28T10:58:56;1.60;;;0.70;;
82511;SDS011;72152;65.012;25.464;2024-02-28T11:02:05;1.40;;;0.80;;
82511;SDS011;72152;65.012;25.464;2024-02-28T11:05:08;1.00;;;0.80;;
82511;SDS011;72152;65.012;25.464;2024-02-28T11:08:21;0.70;;;0.60;;
82511;SDS011;72152;65.012;25.464;2024-02-28T11:11:29;1.80;;;0.80;;
82511;SDS011;72152;65.012;25.464;2024-02-28T11:14:39;1.50;;;0.80;;
82511;SDS011;72152;65.012;25.464;2024-02-28T11:17:41;1.20;;;0.80;;
82511;SDS011;72152;65.012;25.464;2024-02-28T11:20:44;1.90;;;1.20;;
82511;SDS011;72152;65.012;25.464;2024-02-28T11:23:51;1.50;;;0.70;;
82511;SDS011;72152;65.012;25.464;2024-02-28T11:26:57;0.90;;;0.70;;
82511;SDS011;72152;65.012;25.464;2024-02-28T11:33:05;1.60;;;0.90;;
82511;SDS011;72152;65.012;25.464;2024-02-28T11:36:09;0.90;;;0.60;;
82511;SDS011;72152;65.012;25.464;2024-02-28T11:39:17;1.30;;;0.80;;
82511;SDS011;72152;65.012;25.464;2024-02-28T11:42:19;1.20;;;0.70;;
82511;SDS011;72152;65.012;25.464;2024-02-28T11:45:29;1.00;;;0.70;;
82511;SDS011;72152;65.012;25.464;2024-02-28T11:48:34;1.10;;;0.70;;
82511;SDS011;72152;65.012;25.464;2024-02-28T11:51:40;1.90;;;0.90;;
82511;SDS011;72152;65.012;25.464;2024-02-28T11:54:42;1.20;;;0.40;;
82511;SDS011;72152;65.012;25.464;2024-02-28T11:57:45;1.40;;;0.60;;
82511;SDS011;72152;65.012;25.464;2024-02-28T12:00:52;0.90;;;0.70;;
82511;SDS011;72152;65.012;25.464;2024-02-28T12:03:59;1.00;;;0.70;;
82511;SDS011;72152;65.012;25.464;2024-02-28T15:52:31;0.50;;;0.40;;
82511;SDS011;72152;65.012;25.464;2024-02-28T15:55:39;0.40;;;0.40;;
82511;SDS011;72152;65.012;25.464;2024-02-28T15:58:46;0.60;;;0.50;;
82511;SDS011;72152;65.012;25.464;2024-02-28T16:01:54;1.00;;;0.60;;
82511;SDS011;72152;65.012;25.464;2024-02-28T16:05:01;0.70;;;0.70;;
82511;SDS011;72152;65.012;25.464;2024-02-28T16:08:06;1.50;;;0.70;;
82511;SDS011;72152;65.012;25.464;2024-02-28T16:11:12;1.80;;;0.80;;
82511;SDS011;72152;65.012;25.464;2024-02-28T16:14:13;1.40;;;0.80;;
82511;SDS011;72152;65.012;25.464;2024-02-28T16:17:20;1.00;;;0.60;;
82511;SDS011;72152;65.012;25.464;2024-02-28T16:20:24;1.10;;;0.60;;
82511;SDS011;72152;65.012;25.464;2024-02-28T16:23:34;1.10;;;0.70;;
82511;SDS011;72152;65.012;25.464;2024-02-28T16:26:30;1.70;;;1.00;;
82511;SDS011;72152;65.012;25.464;2024-02-28T16:29:35;1.30;;;1.00;;
82511;SDS011;72152;65.012;25.464;2024-02-28T16:33:14;2.00;;;1.00;;
82511;SDS011;72152;65.012;25.464;2024-02-28T16:36:20;1.50;;;0.80;;
82511;SDS011;72152;65.012;25.464;2024-02-28T16:39:26;1.50;;;0.80;;
82511;SDS011;72152;65.012;25.464;2024-02-28T16:42:32;2.10;;;0.90;;
82511;SDS011;72152;65.012;25.464;2024-02-28T16:45:39;1.50;;;0.70;;
82511;SDS011;72152;65.012;25.464;2024-02-28T16:48:49;1.00;;;0.70;;
82511;SDS011;72152;65.012;25.464;2024-02-28T16:51:57;0.90;;;0.50;;
82511;SDS011;72152;65.012;25.464;2024-02-28T16:55:06;0.70;;;0.70;;
82511;SDS011;72152;65.012;25.464;2024-02-28T16:58:12;1.70;;;0.90;;
82511;SDS011;72152;65.012;25.464;2024-02-28T17:01:15;1.30;;;0.80;;
82511;SDS011;72152;65.012;25.464;2024-02-28T17:04:15;2.30;;;1.00;;
82511;SDS011;72152;65.012;25.464;2024-02-28T17:07:55;3.20;;;1.20;;
82511;SDS011;72152;65.012;25.464;2024-02-28T17:11:00;1.20;;;0.80;;
82511;SDS011;72152;65.012;25.464;2024-02-28T17:14:02;2.20;;;1.00;;
82511;SDS011;72152;65.012;25.464;2024-02-28T17:17:11;1.50;;;0.90;;
82511;SDS011;72152;65.012;25.464;2024-02-28T17:20:20;1.60;;;0.70;;
82511;SDS011;72152;65.012;25.464;2024-02-28T17:23:32;1.90;;;1.00;;
82511;SDS011;72152;65.012;25.464;2024-02-28T17:26:35;2.10;;;0.80;;
82511;SDS011;72152;65.012;25.464;2024-02-28T17:29:44;1.80;;;0.90;;
82511;SDS011;72152;65.012;25.464;2024-02-28T17:35:48;2.20;;;1.10;;
82511;SDS011;72152;65.012;25.464;2024-02-28T17:38:53;1.60;;;0.90;;
82511;SDS011;72152;65.012;25.464;2024-02-28T17:42:00;2.50;;;0.90;;
82511;SDS011;72152;65.012;25.464;2024-02-28T17:45:25;1.50;;;0.80;;
82511;SDS011;72152;65.012;25.464;2024-02-28T17:48:31;1.10;;;0.70;;
82511;SDS011;72152;65.012;25.464;2024-02-28T17:51:38;1.40;;;0.90;;
82511;SDS011;72152;65.012;25.464;2024-02-28T17:54:43;0.50;;;0.50;;
82511;SDS011;72152;65.012;25.464;2024-02-28T17:57:50;0.80;;;0.80;;
82511;SDS011;72152;65.012;25.464;2024-02-28T18:00:52;1.70;;;0.80;;
82511;SDS011;72152;65.012;25.464;2024-02-28T18:04:01;2.30;;;1.30;;
82511;SDS011;72152;65.012;25.464;2024-02-28T18:07:01;1.90;;;0.90;;
82511;SDS011;72152;65.012;25.464;2024-02-28T18:10:07;1.60;;;0.90;;
82511;SDS011;72152;65.012;25.464;2024-02-28T18:13:20;0.90;;;0.80;;
82511;SDS011;72152;65.012;25.464;2024-02-28T18:16:31;1.00;;;0.80;;
82511;SDS011;72152;65.012;25.464;2024-02-28T18:19:36;0.90;;;0.70;;
82511;SDS011;72152;65.012;25.464;2024-02-28T18:22:41;3.80;;;0.70;;
82511;SDS011;72152;65.012;25.464;2024-02-28T18:25:46;2.10;;;0.80;;
82511;SDS011;72152;65.012;25.464;2024-02-28T18:28:53;0.50;;;0.50;;
82511;SDS011;72152;65.012;25.464;2024-02-28T18:32:01;1.20;;;0.90;;
82511;SDS011;72152;65.012;25.464;2024-02-28T18:35:11;1.90;;;1.00;;
82511;SDS011;72152;65.012;25.464;2024-02-28T18:38:17;1.70;;;1.10;;
82511;SDS011;72152;65.012;25.464;2024-02-28T18:41:19;1.10;;;0.60;;
82511;SDS011;72152;65.012;25.464;2024-02-28T18:44:21;3.50;;;1.10;;
82511;SDS011;72152;65.012;25.464;2024-02-28T18:47:31;2.70;;;0.90;;
82511;SDS011;72152;65.012;25.464;2024-02-28T18:50:40;1.50;;;1.00;;
82511;SDS011;72152;65.012;25.464;2024-02-28T18:53:44;1.80;;;1.10;;
82511;SDS011;72152;65.012;25.464;2024-02-28T18:56:49;2.10;;;1.10;;
82511;SDS011;72152;65.012;25.464;2024-02-28T19:00:01;1.90;;;0.80;;
82511;SDS011;72152;65.012;25.464;2024-02-28T19:03:16;1.50;;;1.00;;
82511;SDS011;72152;65.012;25.464;2024-02-28T19:06:22;0.90;;;0.80;;
82511;SDS011;72152;65.012;25.464;2024-02-28T19:09:28;2.00;;;1.00;;
82511;SDS011;72152;65.012;25.464;2024-02-28T19:12:41;1.30;;;0.90;;
82511;SDS011;72152;65.012;25.464;2024-02-28T19:15:52;1.70;;;1.00;;
82511;SDS011;72152;65.012;25.464;2024-02-28T19:18:58;0.70;;;0.70;;
82511;SDS011;72152;65.012;25.464;2024-02-28T19:22:03;2.40;;;1.20;;
82511;SDS011;72152;65.012;25.464;2024-02-28T19:25:15;2.30;;;1.00;;
82511;SDS011;72152;65.012;25.464;2024-02-28T19:28:19;2.00;;;0.90;;
82511;SDS011;72152;65.012;25.464;2024-02-28T19:31:25;1.50;;;0.80;;
82511;SDS011;72152;65.012;25.464;2024-02-28T19:34:34;1.50;;;0.90;;
82511;SDS011;72152;65.012;25.464;2024-02-28T19:37:39;2.10;;;1.10;;
82511;SDS011;72152;65.012;25.464;2024-02-28T19:40:46;0.80;;;0.80;;
82511;SDS011;72152;65.012;25.464;2024-02-28T19:43:54;1.30;;;0.80;;
82511;SDS011;72152;65.012;25.464;2024-02-28T19:47:00;1.50;;;0.90;;
82511;SDS011;72152;65.012;25.464;2024-02-28T19:50:07;7.40;;;2.90;;
82511;SDS011;72152;65.012;25.464;2024-02-28T19:53:17;3.50;;;1.40;;
82511;SDS011;72152;65.012;25.464;2024-02-28T19:56:23;1.40;;;0.90;;
82511;SDS011;72152;65.012;25.464;2024-02-28T19:59:22;1.80;;;0.90;;
82511;SDS011;72152;65.012;25.464;2024-02-28T20:02:29;1.80;;;0.80;;
82511;SDS011;72152;65.012;25.464;2024-02-28T20:05:29;1.80;;;1.00;;
82511;SDS011;72152;65.012;25.464;2024-02-28T20:08:33;1.60;;;0.90;;
82511;SDS011;72152;65.012;25.464;2024-02-28T20:11:33;2.00;;;1.10;;
82511;SDS011;72152;65.012;25.464;2024-02-28T20:14:39;2.30;;;1.20;;
82511;SDS011;72152;65.012;25.464;2024-02-28T20:17:52;3.10;;;1.20;;
82511;SDS011;72152;65.012;25.464;2024-02-28T20:21:00;2.40;;;1.20;;
82511;SDS011;72152;65.012;25.464;2024-02-28T20:24:05;2.40;;;0.90;;
82511;SDS011;72152;65.012;25.464;2024-02-28T20:27:14;2.50;;;1.10;;
82511;SDS011;72152;65.012;25.464;2024-02-28T20:30:21;2.70;;;1.00;;
82511;SDS011;72152;65.012;25.464;2024-02-28T20:33:29;3.10;;;1.30;;
82511;SDS011;72152;65.012;25.464;2024-02-28T20:36:32;2.60;;;1.20;;
82511;SDS011;72152;65.012;25.464;2024-02-28T20:39:36;1.70;;;1.10;;
82511;SDS011;72152;65.012;25.464;2024-02-28T20:42:46;2.30;;;1.20;;
82511;SDS011;72152;65.012;25.464;2024-02-28T20:45:51;2.10;;;1.40;;
82511;SDS011;72152;65.012;25.464;2024-02-28T20:48:57;1.40;;;1.00;;
82511;SDS011;72152;65.012;25.464;2024-02-28T20:52:03;3.50;;;1.30;;
82511;SDS011;72152;65.012;25.464;2024-02-28T20:55:17;3.90;;;1.60;;
82511;SDS011;72152;65.012;25.464;2024-02-28T20:58:20;3.30;;;1.70;;
82511;SDS011;72152;65.012;25.464;2024-02-28T21:01:25;4.50;;;1.50;;
82511;SDS011;72152;65.012;25.464;2024-02-28T21:04:32;1.20;;;0.90;;
82511;SDS011;72152;65.012;25.464;2024-02-28T21:07:32;2.10;;;1.20;;
82511;SDS011;72152;65.012;25.464;2024-02-28T21:10:33;1.50;;;1.00;;
82511;SDS011;72152;65.012;25.464;2024-02-28T21:13:39;1.90;;;1.10;;
82511;SDS011;72152;65.012;25.464;2024-02-28T21:16:49;1.90;;;1.10;;
82511;SDS011;72152;65.012;25.464;2024-02-28T21:19:55;2.10;;;1.20;;
82511;SDS011;72152;65.012;25.464;2024-02-28T21:23:05;1.90;;;1.10;;
82511;SDS011;72152;65.012;25.464;2024-02-28T21:26:10;2.10;;;1.00;;
82511;SDS011;72152;65.012;25.464;2024-02-28T21:29:20;1.80;;;1.10;;
82511;SDS011;72152;65.012;25.464;2024-02-28T21:32:30;1.50;;;1.00;;
82511;SDS011;72152;65.012;25.464;2024-02-28T21:35:38;2.10;;;1.20;;
82511;SDS011;72152;65.012;25.464;2024-02-28T21:38:44;2.80;;;1.20;;
82511;SDS011;72152;65.012;25.464;2024-02-28T21:41:52;2.60;;;1.20;;
82511;SDS011;72152;65.012;25.464;2024-02-28T21:44:58;2.00;;;1.30;;
82511;SDS011;72152;65.012;25.464;2024-02-28T21:48:05;2.80;;;1.30;;
82511;SDS011;72152;65.012;25.464;2024-02-28T21:51:16;2.10;;;1.30;;
82511;SDS011;72152;65.012;25.464;2024-02-28T21:54:18;1.70;;;1.20;;
82511;SDS011;72152;65.012;25.464;2024-02-28T21:57:23;2.70;;;1.30;;
82511;SDS011;72152;65.012;25.464;2024-02-28T22:00:34;2.30;;;1.20;;
82511;SDS011;72152;65.012;25.464;2024-02-28T22:03:43;2.70;;;1.10;;
82511;SDS011;72152;65.012;25.464;2024-02-28T22:06:49;2.90;;;1.30;;
82511;SDS011;72152;65.012;25.464;2024-02-28T22:09:55;3.10;;;1.40;;
82511;SDS011;72152;65.012;25.464;2024-02-28T22:13:05;2.70;;;1.20;;
82511;SDS011;72152;65.012;25.464;2024-02-28T22:16:12;1.90;;;1.00;;
82511;SDS011;72152;65.012;25.464;2024-02-28T22:19:15;2.40;;;1.40;;
82511;SDS011;72152;65.012;25.464;2024-02-28T22:22:24;1.90;;;1.20;;
82511;SDS011;72152;65.012;25.464;2024-02-28T22:25:30;2.40;;;1.20;;
82511;SDS011;72152;65.012;25.464;2024-02-28T22:28:37;2.80;;;1.20;;
82511;SDS011;72152;65.012;25.464;2024-02-28T22:31:44;2.10;;;1.20;;
82511;SDS011;72152;65.012;25.464;2024-02-28T22:34:46;1.60;;;1.10;;
82511;SDS011;72152;65.012;25.464;2024-02-28T22:37:53;2.30;;;1.20;;
82511;SDS011;72152;65.012;25.464;2024-02-28T22:40:59;2.30;;;1.20;;
82511;SDS011;72152;65.012;25.464;2024-02-28T22:44:04;3.40;;;1.20;;
82511;SDS011;72152;65.012;25.464;2024-02-28T22:47:10;2.30;;;1.40;;
82511;SDS011;72152;65.012;25.464;2024-02-28T22:50:13;2.40;;;1.10;;
82511;SDS011;72152;65.012;25.464;2024-02-28T22:53:16;2.40;;;1.30;;
82511;SDS011;72152;65.012;25.464;2024-02-28T22:56:20;2.50;;;1.10;;